createdAt,value
2022-08-24T00:00:37.240Z,79.38
2022-08-24T00:03:04.169Z,79.48
2022-08-24T00:05:31.066Z,79.33
2022-08-24T00:07:57.957Z,79.44
2022-08-24T00:10:26.668Z,79.53
2022-08-24T00:12:53.501Z,79.38
2022-08-24T00:15:20.658Z,79.45
2022-08-24T00:17:47.419Z,79.62
2022-08-24T00:20:14.442Z,79.44
2022-08-24T00:22:41.892Z,79.49
2022-08-24T00:25:11.701Z,79.59
2022-08-24T00:27:39.767Z,79.41
2022-08-24T00:30:09.396Z,79.51
2022-08-24T00:32:37.848Z,79.52
2022-08-24T00:35:06.859Z,79.35
2022-08-24T00:37:34.256Z,79.38
2022-08-24T00:40:01.344Z,79.62
2022-08-24T00:42:28.599Z,79.69
2022-08-24T00:44:55.363Z,79.46
2022-08-24T00:47:31.818Z,79.41
2022-08-24T00:50:03.014Z,79.43
2022-08-24T00:52:40.451Z,79.27
2022-08-24T00:55:19.284Z,79.19
2022-08-24T00:57:50.960Z,79.19
2022-08-24T01:00:22.967Z,79.14
2022-08-24T01:02:51.786Z,79.20
2022-08-24T01:05:19.364Z,79.49
2022-08-24T01:07:50.781Z,79.46
2022-08-24T01:10:21.645Z,79.67
2022-08-24T01:12:59.889Z,79.64
2022-08-24T01:15:29.651Z,79.64
2022-08-24T01:18:15.733Z,79.64
2022-08-24T01:20:49.497Z,79.56
2022-08-24T01:23:48.810Z,79.52
2022-08-24T01:26:21.057Z,79.49
2022-08-24T01:28:51.043Z,79.49
2022-08-24T01:31:22.290Z,79.60
2022-08-24T01:33:51.946Z,79.67
2022-08-24T01:36:28.501Z,79.58
2022-08-24T01:38:59.141Z,79.80
2022-08-24T01:41:29.060Z,79.95
2022-08-24T01:43:58.904Z,80.08
2022-08-24T01:46:28.038Z,80.03
2022-08-24T01:48:58.071Z,80.15
2022-08-24T01:51:35.178Z,80.07
2022-08-24T01:54:03.945Z,79.89
2022-08-24T01:56:33.005Z,80.00
2022-08-24T01:59:00.847Z,80.01
2022-08-24T02:01:30.632Z,80.22
2022-08-24T02:04:00.765Z,80.30
2022-08-24T02:06:27.561Z,80.31
2022-08-24T02:08:54.743Z,80.25
2022-08-24T02:11:22.438Z,80.29
2022-08-24T02:13:49.506Z,80.25
2022-08-24T02:16:17.128Z,80.20
2022-08-24T02:18:44.426Z,80.24
2022-08-24T02:21:13.068Z,80.24
2022-08-24T02:23:41.446Z,80.07
2022-08-24T02:26:10.332Z,80.49
2022-08-24T02:28:38.621Z,80.49
2022-08-24T02:31:07.588Z,80.46
2022-08-24T02:33:35.605Z,80.32
2022-08-24T02:36:03.082Z,80.68
2022-08-24T02:38:31.166Z,80.69
2022-08-24T02:40:58.679Z,80.94
2022-08-24T02:43:26.715Z,80.97
2022-08-24T02:45:54.816Z,81.22
2022-08-24T02:48:23.147Z,81.02
2022-08-24T02:50:52.710Z,80.85
2022-08-24T02:53:22.288Z,81.00
2022-08-24T02:55:49.793Z,81.09
2022-08-24T02:58:18.559Z,81.42
2022-08-24T03:00:48.289Z,81.67
2022-08-24T03:03:17.695Z,81.92
2022-08-24T03:05:44.694Z,82.12
2022-08-24T03:08:12.644Z,82.41
2022-08-24T03:10:39.959Z,82.68
2022-08-24T03:13:07.789Z,82.79
2022-08-24T03:15:35.304Z,83.10
2022-08-24T03:18:02.463Z,83.42
2022-08-24T03:20:30.352Z,83.55
2022-08-24T03:22:57.827Z,83.63
2022-08-24T03:25:26.666Z,83.92
2022-08-24T03:27:54.244Z,84.00
2022-08-24T03:30:22.747Z,84.24
2022-08-24T03:32:50.953Z,84.31
2022-08-24T03:35:18.655Z,84.40
2022-08-24T03:37:45.664Z,84.69
2022-08-24T03:40:22.218Z,84.96
2022-08-24T03:42:50.509Z,84.82
2022-08-24T03:45:19.249Z,85.18
2022-08-24T03:47:46.464Z,85.06
2022-08-24T03:50:14.592Z,85.11
2022-08-24T03:52:41.988Z,85.26
2022-08-24T03:55:10.150Z,85.34
2022-08-24T03:57:37.344Z,85.41
2022-08-24T04:00:08.143Z,85.45
2022-08-24T04:02:42.118Z,85.40
2022-08-24T04:05:13.358Z,85.27
2022-08-24T04:07:41.763Z,85.26
2022-08-24T04:10:09.065Z,85.08
2022-08-24T04:12:35.868Z,84.93
2022-08-24T04:15:04.118Z,84.66
2022-08-24T04:17:31.435Z,84.45
2022-08-24T04:19:58.861Z,83.89
2022-08-24T04:22:35.246Z,82.81
2022-08-24T04:25:08.936Z,80.76
2022-08-24T04:27:40.674Z,79.09
2022-08-24T04:30:09.287Z,77.74
2022-08-24T04:32:59.572Z,73.30
2022-08-24T04:35:26.431Z,70.69
2022-08-24T04:37:53.396Z,68.86
2022-08-24T04:40:20.257Z,67.65
2022-08-24T04:42:50.380Z,66.04
2022-08-24T04:45:17.439Z,64.83
2022-08-24T04:47:45.608Z,62.86
2022-08-24T04:50:13.052Z,62.18
2022-08-24T04:52:39.914Z,59.79
2022-08-24T04:55:07.551Z,59.43
2022-08-24T04:57:35.528Z,58.10
2022-08-24T05:00:03.529Z,53.87
2022-08-24T05:02:31.589Z,56.72
2022-08-24T05:05:01.267Z,53.73
2022-08-24T05:07:28.061Z,52.55
2022-08-24T05:09:55.996Z,56.03
2022-08-24T05:12:24.363Z,54.10
2022-08-24T05:15:00.359Z,53.08
2022-08-24T05:17:29.214Z,53.02
2022-08-24T05:19:57.754Z,53.24
2022-08-24T05:22:24.946Z,52.12
2022-08-24T05:24:54.419Z,52.82
2022-08-24T05:27:23.439Z,52.18
2022-08-24T05:29:55.845Z,52.55
2022-08-24T05:32:23.514Z,53.68
2022-08-24T05:34:52.689Z,52.57
2022-08-24T05:37:19.803Z,51.95
2022-08-24T05:40:11.417Z,50.54
2022-08-24T05:42:41.157Z,49.29
2022-08-24T05:45:08.406Z,48.19
2022-08-24T05:47:35.542Z,47.89
2022-08-24T05:50:10.079Z,46.65
2022-08-24T05:52:37.088Z,47.79
2022-08-24T05:55:06.163Z,49.50
2022-08-24T05:57:35.792Z,48.05
2022-08-24T06:00:17.528Z,48.42
2022-08-24T06:02:48.488Z,47.66
2022-08-24T06:05:15.550Z,48.43
2022-08-24T06:07:42.533Z,48.16
2022-08-24T06:10:35.396Z,47.40
2022-08-24T06:12:58.389Z,50.59
2022-08-24T06:15:25.355Z,50.37
2022-08-24T06:17:52.327Z,52.42
2022-08-24T06:20:19.264Z,50.75
2022-08-24T06:22:46.040Z,50.46
2022-08-24T06:25:31.625Z,51.39
2022-08-24T06:27:59.045Z,51.28
2022-08-24T06:30:30.754Z,50.81
2022-08-24T06:33:18.468Z,49.63
2022-08-24T06:35:48.880Z,49.88
2022-08-24T06:38:15.759Z,50.59
2022-08-24T06:40:45.306Z,49.86
2022-08-24T06:43:13.593Z,49.48
2022-08-24T06:45:47.787Z,46.72
2022-08-24T06:48:17.378Z,46.50
2022-08-24T06:50:45.360Z,46.60
2022-08-24T06:53:14.933Z,48.94
2022-08-24T06:55:53.737Z,48.85
2022-08-24T06:58:23.664Z,46.56
2022-08-24T07:00:51.350Z,46.09
2022-08-24T07:03:21.264Z,46.69
2022-08-24T07:05:58.106Z,47.14
2022-08-24T07:08:39.043Z,48.85
2022-08-24T07:11:08.494Z,47.54
2022-08-24T07:13:36.641Z,47.12
2022-08-24T07:16:05.139Z,48.30
2022-08-24T07:18:34.990Z,48.09
2022-08-24T07:21:04.280Z,48.24
2022-08-24T07:23:51.031Z,49.35
2022-08-24T07:26:23.421Z,49.64
2022-08-24T07:28:59.957Z,50.23
2022-08-24T07:31:35.124Z,48.58
2022-08-24T07:34:25.649Z,47.77
2022-08-24T07:36:53.545Z,48.00
2022-08-24T07:39:21.463Z,45.74
2022-08-24T07:42:11.375Z,46.05
2022-08-24T07:44:39.110Z,45.87
2022-08-24T07:47:27.196Z,47.99
2022-08-24T07:49:54.925Z,47.71
2022-08-24T07:52:22.343Z,48.18
2022-08-24T07:54:51.473Z,47.81
2022-08-24T07:57:19.343Z,50.27
2022-08-24T07:59:48.025Z,50.78
2022-08-24T08:02:15.572Z,47.64
2022-08-24T08:04:48.135Z,49.16
2022-08-24T08:07:19.277Z,50.41
2022-08-24T08:09:49.710Z,50.73
2022-08-24T08:12:17.270Z,51.47
2022-08-24T08:14:53.943Z,47.76
2022-08-24T08:17:20.859Z,47.80
2022-08-24T08:19:47.680Z,49.05
2022-08-24T08:22:33.301Z,49.75
2022-08-24T08:25:19.254Z,48.66
2022-08-24T08:27:47.228Z,48.47
2022-08-24T08:30:14.845Z,48.73
2022-08-24T08:32:42.747Z,49.20
2022-08-24T08:35:10.086Z,49.20
2022-08-24T08:37:37.614Z,51.59
2022-08-24T08:40:07.027Z,48.65
2022-08-24T08:42:52.476Z,49.40
2022-08-24T08:45:51.914Z,48.77
2022-08-24T08:49:23.706Z,48.79
2022-08-24T08:51:51.617Z,51.50
2022-08-24T08:54:22.556Z,51.33
2022-08-24T08:57:17.738Z,49.00
2022-08-24T09:00:07.340Z,48.80
2022-08-24T09:03:17.617Z,47.34
2022-08-24T09:06:15.779Z,47.37
2022-08-24T09:09:06.550Z,47.66
2022-08-24T09:11:51.436Z,45.44
2022-08-24T09:14:49.973Z,45.98
2022-08-24T09:17:29.872Z,46.84
2022-08-24T09:20:15.118Z,47.29
2022-08-24T09:22:47.831Z,45.98
2022-08-24T09:25:32.652Z,46.01
2022-08-24T09:28:21.850Z,43.78
2022-08-24T09:31:03.647Z,44.36
2022-08-24T09:33:55.477Z,46.10
2022-08-24T09:36:25.077Z,46.23
2022-08-24T09:39:17.708Z,48.01
2022-08-24T09:42:12.047Z,45.87
2022-08-24T09:45:06.702Z,45.92
2022-08-24T09:48:04.141Z,44.02
2022-08-24T09:50:52.843Z,45.79
2022-08-24T09:53:47.656Z,46.10
2022-08-24T09:56:32.351Z,44.60
2022-08-24T09:59:01.723Z,44.20
2022-08-24T10:01:43.010Z,47.10
2022-08-24T10:04:32.154Z,46.84
2022-08-24T10:07:47.315Z,46.89
2022-08-24T10:10:52.404Z,46.76
2022-08-24T10:13:28.335Z,45.77
2022-08-24T10:16:00.967Z,44.17
2022-08-24T10:18:35.301Z,43.33
2022-08-24T10:21:15.197Z,45.49
2022-08-24T10:24:07.728Z,45.60
2022-08-24T10:26:37.394Z,45.87
2022-08-24T10:29:44.647Z,44.94
2022-08-24T10:32:33.861Z,42.95
2022-08-24T10:35:17.303Z,45.62
2022-08-24T10:38:18.433Z,45.59
2022-08-24T10:41:09.316Z,45.70
2022-08-24T10:44:13.745Z,43.96
2022-08-24T10:46:58.821Z,44.46
2022-08-24T10:49:34.790Z,44.56
2022-08-24T10:52:07.343Z,45.64
2022-08-24T10:54:36.340Z,45.71
2022-08-24T10:57:16.596Z,45.84
2022-08-24T11:00:00.730Z,45.73
2022-08-24T11:02:37.102Z,44.92
2022-08-24T11:05:10.573Z,44.44
2022-08-24T11:07:56.487Z,45.65
2022-08-24T11:10:30.582Z,45.44
2022-08-24T11:13:18.715Z,44.79
2022-08-24T11:15:58.009Z,46.54
2022-08-24T11:18:25.302Z,47.47
2022-08-24T11:20:55.110Z,46.88
2022-08-24T11:23:42.869Z,44.73
2022-08-24T11:26:20.104Z,45.68
2022-08-24T11:28:53.960Z,45.95
2022-08-24T11:31:32.720Z,46.60
2022-08-24T11:34:08.152Z,47.00
2022-08-24T11:36:38.592Z,47.13
2022-08-24T11:39:35.615Z,45.81
2022-08-24T11:42:14.628Z,47.40
2022-08-24T11:45:09.780Z,47.34
2022-08-24T11:48:07.203Z,47.89
2022-08-24T11:50:52.820Z,46.50
2022-08-24T11:53:47.503Z,45.78
2022-08-24T11:56:25.991Z,44.28
2022-08-24T11:58:57.187Z,44.63
2022-08-24T12:01:34.985Z,44.40
2022-08-24T12:04:31.509Z,44.43
2022-08-24T12:07:04.114Z,44.74
2022-08-24T12:09:49.680Z,45.73
2022-08-24T12:12:29.131Z,45.37
2022-08-24T12:15:17.396Z,44.56
2022-08-24T12:18:00.950Z,45.25
2022-08-24T12:20:48.552Z,46.07
2022-08-24T12:23:20.021Z,45.39
2022-08-24T12:26:03.437Z,45.50
2022-08-24T12:28:42.275Z,45.39
2022-08-24T12:31:18.102Z,44.90
2022-08-24T12:33:58.625Z,44.43
2022-08-24T12:36:30.905Z,45.71
2022-08-24T12:39:15.852Z,46.10
2022-08-24T12:41:54.768Z,46.70
2022-08-24T12:44:25.477Z,47.08
2022-08-24T12:46:54.414Z,45.49
2022-08-24T12:49:31.103Z,44.52
2022-08-24T12:52:34.542Z,43.42
2022-08-24T12:55:10.415Z,45.47
2022-08-24T12:57:55.872Z,44.24
2022-08-24T13:00:28.987Z,45.15
2022-08-24T13:03:06.353Z,44.70
2022-08-24T13:05:45.655Z,44.84
2022-08-24T13:08:32.201Z,45.76
2022-08-24T13:11:29.683Z,44.66
2022-08-24T13:14:14.796Z,44.17
2022-08-24T13:16:56.790Z,45.50
2022-08-24T13:19:23.760Z,45.23
2022-08-24T13:21:55.320Z,46.40
2022-08-24T13:24:28.003Z,46.07
2022-08-24T13:27:11.365Z,46.53
2022-08-24T13:29:41.965Z,46.07
2022-08-24T13:32:20.453Z,44.92
2022-08-24T13:34:50.599Z,46.04
2022-08-24T13:37:22.645Z,47.38
2022-08-24T13:39:58.724Z,47.13
2022-08-24T13:42:43.675Z,46.23
2022-08-24T13:45:46.309Z,46.00
2022-08-24T13:48:48.018Z,47.30
2022-08-24T13:51:29.853Z,46.39
2022-08-24T13:54:05.526Z,46.34
2022-08-24T13:57:06.136Z,44.75
2022-08-24T13:59:55.920Z,45.10
2022-08-24T14:02:31.185Z,47.12
2022-08-24T14:05:40.211Z,45.76
2022-08-24T14:08:18.542Z,46.91
2022-08-24T14:11:03.344Z,46.66
2022-08-24T14:13:35.968Z,47.16
2022-08-24T14:16:40.499Z,46.47
2022-08-24T14:19:28.473Z,46.55
2022-08-24T14:22:19.945Z,47.03
2022-08-24T14:24:54.501Z,47.32
2022-08-24T14:27:42.725Z,47.53
2022-08-24T14:30:33.903Z,46.59
2022-08-24T14:33:00.581Z,47.31
2022-08-24T14:35:36.440Z,46.27
2022-08-24T14:38:24.163Z,46.87
2022-08-24T14:40:57.821Z,46.88
2022-08-24T14:43:31.290Z,47.76
2022-08-24T14:46:23.006Z,47.39
2022-08-24T14:48:50.084Z,47.52
2022-08-24T14:51:25.322Z,47.76
2022-08-24T14:54:15.724Z,47.86
2022-08-24T14:57:10.112Z,47.14
2022-08-24T15:00:06.352Z,48.07
2022-08-24T15:02:51.898Z,48.14
2022-08-24T15:05:34.957Z,47.84
2022-08-24T15:08:05.893Z,48.29
2022-08-24T15:10:57.231Z,48.61
2022-08-24T15:13:37.954Z,49.03
2022-08-24T15:16:14.714Z,48.54
2022-08-24T15:18:44.742Z,48.72
2022-08-24T15:21:48.965Z,49.19
2022-08-24T15:24:48.077Z,49.73
2022-08-24T15:27:34.143Z,49.36
2022-08-24T15:30:05.672Z,49.53
2022-08-24T15:32:49.399Z,49.88
2022-08-24T15:35:43.837Z,49.14
2022-08-24T15:38:34.060Z,49.37
2022-08-24T15:41:11.345Z,49.32
2022-08-24T15:43:56.939Z,49.06
2022-08-24T15:46:35.026Z,49.52
2022-08-24T15:49:03.954Z,49.79
2022-08-24T15:51:55.887Z,50.88
2022-08-24T15:54:24.782Z,50.55
2022-08-24T15:56:58.772Z,50.54
2022-08-24T15:59:31.315Z,49.45
2022-08-24T16:02:29.713Z,50.09
2022-08-24T16:05:02.614Z,50.92
2022-08-24T16:07:35.501Z,50.26
2022-08-24T16:10:10.319Z,50.85
2022-08-24T16:12:38.084Z,51.20
2022-08-24T16:15:19.932Z,51.44
2022-08-24T16:17:51.540Z,51.78
2022-08-24T16:20:24.486Z,51.50
2022-08-24T16:23:00.560Z,52.13
2022-08-24T16:25:40.996Z,52.02
2022-08-24T16:28:21.829Z,52.16
2022-08-24T16:31:07.474Z,52.51
2022-08-24T16:33:43.127Z,52.92
2022-08-24T16:36:15.050Z,52.74
2022-08-24T16:38:49.115Z,52.60
2022-08-24T16:41:19.799Z,53.02
2022-08-24T16:43:47.142Z,53.00
2022-08-24T16:46:20.324Z,53.02
2022-08-24T16:48:47.613Z,53.55
2022-08-24T16:51:14.461Z,53.33
2022-08-24T16:53:41.208Z,54.63
2022-08-24T16:56:08.915Z,53.78
2022-08-24T16:58:37.324Z,53.09
2022-08-24T17:01:05.283Z,53.44
2022-08-24T17:03:32.524Z,52.70
2022-08-24T17:05:59.459Z,52.63
2022-08-24T17:08:28.548Z,51.60
2022-08-24T17:10:55.464Z,50.97
2022-08-24T17:13:46.148Z,49.96
2022-08-24T17:16:12.140Z,49.23
2022-08-24T17:18:39.371Z,46.05
2022-08-24T17:21:06.277Z,43.16
2022-08-24T17:23:34.331Z,46.18
2022-08-24T17:26:03.589Z,47.18
2022-08-24T17:28:31.457Z,47.84
2022-08-24T17:30:58.823Z,48.66
2022-08-24T17:33:25.651Z,50.32
2022-08-24T17:35:55.237Z,50.10
2022-08-24T17:38:22.310Z,51.65
2022-08-24T17:40:49.914Z,50.03
2022-08-24T17:43:16.793Z,49.72
2022-08-24T17:45:43.977Z,49.93
2022-08-24T17:48:16.377Z,51.62
2022-08-24T17:50:43.235Z,52.77
2022-08-24T17:53:10.157Z,54.09
2022-08-24T17:55:37.322Z,55.24
2022-08-24T17:58:04.178Z,55.98
2022-08-24T18:00:31.163Z,56.96
2022-08-24T18:02:58.003Z,57.79
2022-08-24T18:05:24.780Z,57.98
2022-08-24T18:07:54.779Z,58.62
2022-08-24T18:10:32.388Z,59.08
2022-08-24T18:13:01.663Z,59.42
2022-08-24T18:15:35.419Z,60.05
2022-08-24T18:18:08.707Z,60.76
2022-08-24T18:20:38.736Z,60.76
2022-08-24T18:23:05.660Z,61.08
2022-08-24T18:25:44.058Z,61.79
2022-08-24T18:28:11.217Z,61.42
2022-08-24T18:30:40.669Z,61.55
2022-08-24T18:33:08.522Z,61.74
2022-08-24T18:35:35.529Z,62.03
2022-08-24T18:38:02.409Z,62.34
2022-08-24T18:40:33.204Z,62.58
2022-08-24T18:43:01.982Z,62.90
2022-08-24T18:45:31.772Z,63.20
2022-08-24T18:47:58.793Z,63.16
2022-08-24T18:50:28.807Z,63.48
2022-08-24T18:52:57.703Z,63.60
2022-08-24T18:55:25.664Z,63.74
2022-08-24T18:57:53.029Z,63.72
2022-08-24T19:00:20.177Z,63.80
2022-08-24T19:02:47.477Z,63.55
2022-08-24T19:05:19.122Z,63.73
2022-08-24T19:07:48.109Z,63.74
2022-08-24T19:10:18.969Z,63.90
2022-08-24T19:12:49.295Z,64.11
2022-08-24T19:15:32.379Z,63.90
2022-08-24T19:18:05.547Z,63.93
2022-08-24T19:20:33.873Z,63.93
2022-08-24T19:23:07.431Z,63.36
2022-08-24T19:25:36.261Z,63.43
2022-08-24T19:28:04.255Z,64.12
2022-08-24T19:30:31.161Z,63.67
2022-08-24T19:32:58.771Z,63.80
2022-08-24T19:35:25.738Z,64.07
2022-08-24T19:37:52.546Z,64.76
2022-08-24T19:40:22.816Z,64.93
2022-08-24T19:42:53.593Z,64.17
2022-08-24T19:45:44.444Z,64.72
2022-08-24T19:48:12.985Z,64.26
2022-08-24T19:50:40.571Z,64.07
2022-08-24T19:53:08.224Z,64.05
2022-08-24T19:55:35.004Z,64.40
2022-08-24T19:58:20.149Z,64.51
2022-08-24T20:01:01.908Z,64.77
2022-08-24T20:03:28.752Z,64.60
2022-08-24T20:05:55.671Z,64.58
2022-08-24T20:08:22.439Z,64.85
2022-08-24T20:10:49.837Z,64.40
2022-08-24T20:13:17.092Z,64.84
2022-08-24T20:15:43.921Z,65.01
2022-08-24T20:18:11.089Z,65.32
2022-08-24T20:20:37.960Z,65.32
2022-08-24T20:23:06.383Z,65.40
2022-08-24T20:25:39.593Z,65.11
2022-08-24T20:30:55.596Z,65.17
2022-08-24T20:33:23.848Z,65.24
2022-08-24T20:35:51.041Z,65.59
2022-08-24T20:38:20.073Z,65.88
2022-08-24T20:40:47.695Z,66.03
2022-08-24T20:43:14.733Z,66.12
2022-08-24T20:45:41.990Z,65.80
2022-08-24T20:48:12.175Z,66.12
2022-08-24T20:50:43.452Z,66.36
2022-08-24T20:53:11.610Z,66.68
2022-08-24T20:55:42.216Z,66.68
2022-08-24T20:58:09.957Z,66.98
2022-08-24T21:00:37.440Z,66.97
2022-08-24T21:03:05.067Z,66.72
2022-08-24T21:05:32.382Z,66.77
2022-08-24T21:07:59.154Z,66.78
2022-08-24T21:10:27.358Z,67.34
2022-08-24T21:12:54.742Z,67.65
2022-08-24T21:15:23.315Z,67.78
2022-08-24T21:17:50.548Z,68.20
2022-08-24T21:20:18.370Z,68.36
2022-08-24T21:22:46.258Z,68.55
2022-08-24T21:25:14.718Z,68.54
2022-08-24T21:27:44.213Z,69.06
2022-08-24T21:30:16.232Z,69.41
2022-08-24T21:33:01.880Z,69.32
2022-08-24T21:35:28.789Z,69.16
2022-08-24T21:37:56.270Z,69.57
2022-08-24T21:40:23.442Z,69.37
2022-08-24T21:42:50.294Z,69.53
2022-08-24T21:45:19.031Z,69.58
2022-08-24T21:47:45.871Z,69.81
2022-08-24T21:50:14.208Z,69.95
2022-08-24T21:52:41.687Z,70.19
2022-08-24T21:55:12.929Z,69.50
2022-08-24T21:57:41.460Z,69.75
2022-08-24T22:00:14.420Z,69.94
2022-08-24T22:02:41.876Z,70.24
2022-08-24T22:05:09.286Z,70.26
2022-08-24T22:07:36.791Z,70.50
2022-08-24T22:10:04.707Z,70.27
2022-08-24T22:12:31.488Z,70.61
2022-08-24T22:14:58.246Z,70.47
2022-08-24T22:17:25.006Z,70.34
2022-08-24T22:19:51.840Z,70.71
2022-08-24T22:22:18.625Z,70.41
2022-08-24T22:24:45.409Z,70.35
2022-08-24T22:27:12.291Z,70.51
2022-08-24T22:29:39.454Z,70.50
2022-08-24T22:32:06.303Z,70.69
2022-08-24T22:34:33.106Z,70.74
2022-08-24T22:37:01.578Z,70.88
2022-08-24T22:39:28.795Z,71.01
2022-08-24T22:41:55.853Z,71.29
2022-08-24T22:44:22.894Z,71.30
2022-08-24T22:46:55.239Z,71.22
2022-08-24T22:49:25.234Z,71.38
2022-08-24T22:51:52.325Z,71.80
2022-08-24T22:54:21.461Z,72.26
2022-08-24T22:56:51.745Z,72.47
2022-08-24T22:59:22.019Z,72.54
2022-08-24T23:01:51.245Z,72.75
2022-08-24T23:04:22.062Z,72.98
2022-08-24T23:06:49.247Z,72.95
2022-08-24T23:09:16.256Z,73.20
2022-08-24T23:11:43.714Z,73.47
2022-08-24T23:14:12.220Z,73.54
2022-08-24T23:16:44.650Z,73.65
2022-08-24T23:19:30.564Z,74.14
2022-08-24T23:21:57.319Z,74.12
2022-08-24T23:24:24.420Z,74.69
2022-08-24T23:26:51.216Z,74.55
2022-08-24T23:29:18.475Z,74.37
2022-08-24T23:31:46.236Z,74.51
2022-08-24T23:34:15.119Z,74.89
2022-08-24T23:36:43.159Z,74.97
2022-08-24T23:39:10.719Z,74.92
2022-08-24T23:41:39.648Z,74.95
2022-08-24T23:44:13.594Z,75.10
2022-08-24T23:46:40.739Z,75.14
2022-08-24T23:49:08.464Z,75.32
2022-08-24T23:51:36.461Z,75.37
2022-08-24T23:54:05.959Z,75.50
2022-08-24T23:56:35.737Z,76.21
2022-08-24T23:59:07.505Z,76.14
